Time;durP1;ratioP1;P1;durP2;ratioP2;P2;SDS_P1;SDS_P2;PMS_P1;PMS_P2;Temp;Humidity;BMP_temperature;BMP_pressure;BME280_temperature;BME280_humidity;BME280_pressure;Samples;Min_cycle;Max_cycle;Signal;HPM_P1;HPM_P2
2022/01/07 00:01:49;;;;;;;5.95;4.47;;;-1.40;99.90;;;;;;4992659;28;20038;-48
2022/01/07 00:04:15;;;;;;;5.18;4.30;;;-1.40;99.90;;;;;;4997092;28;20044;-48
2022/01/07 00:06:41;;;;;;;4.85;3.70;;;-1.50;99.90;;;;;;4993881;28;20064;-48
2022/01/07 00:09:06;;;;;;;9.10;5.13;;;-1.40;99.90;;;;;;4996604;28;20032;-49
2022/01/07 00:11:32;;;;;;;5.57;5.03;;;-1.40;99.90;;;;;;4996934;28;20030;-48
2022/01/07 00:13:58;;;;;;;7.63;5.80;;;-1.50;99.90;;;;;;4997723;28;20687;-48
2022/01/07 00:16:23;;;;;;;10.13;5.03;;;-1.60;99.90;;;;;;4999808;28;20056;-48
2022/01/07 00:18:49;;;;;;;6.93;4.60;;;-1.80;99.90;;;;;;5000200;28;20029;-49
2022/01/07 00:21:14;;;;;;;6.95;4.60;;;-1.80;99.90;;;;;;4999546;28;20025;-48
2022/01/07 00:23:40;;;;;;;6.75;5.60;;;-1.70;99.90;;;;;;4995746;28;20124;-48
2022/01/07 00:26:06;;;;;;;7.15;4.13;;;-1.70;99.90;;;;;;5000395;28;20025;-48
2022/01/07 00:28:31;;;;;;;4.35;3.92;;;-1.70;99.90;;;;;;4994703;28;20021;-48
2022/01/07 00:30:57;;;;;;;5.53;3.90;;;-1.70;99.90;;;;;;4996716;28;20069;-49
2022/01/07 00:33:23;;;;;;;3.67;2.92;;;-1.70;99.90;;;;;;4999793;28;20038;-49
2022/01/07 00:35:48;;;;;;;4.93;3.00;;;-1.70;99.90;;;;;;4989159;28;20033;-49
2022/01/07 00:38:14;;;;;;;9.65;4.07;;;-1.80;99.90;;;;;;4993946;28;20453;-48
2022/01/07 00:40:40;;;;;;;8.23;3.67;;;-1.80;99.90;;;;;;4991253;28;20083;-49
2022/01/07 00:43:06;;;;;;;6.47;3.95;;;-1.80;99.90;;;;;;4985676;28;20037;-48
2022/01/07 00:45:32;;;;;;;6.57;4.45;;;-1.80;99.90;;;;;;4981052;28;20038;-48
2022/01/07 00:47:58;;;;;;;4.38;3.53;;;-1.80;99.90;;;;;;4982595;28;20044;-48
2022/01/07 00:50:27;;;;;;;5.40;3.80;;;-1.90;99.90;;;;;;4990848;28;20471;-48
2022/01/07 00:52:52;;;;;;;;;;;-1.80;99.90;;;;;;4991647;28;20048;-48
2022/01/07 00:55:18;;;;;;;5.20;3.45;;;-1.90;99.90;;;;;;4991882;28;19913;-49
2022/01/07 00:57:44;;;;;;;6.72;4.18;;;-1.90;99.90;;;;;;4989034;28;20573;-49
2022/01/07 01:00:17;;;;;;;6.68;3.70;;;-1.90;99.90;;;;;;5001879;28;20446;-49
2022/01/07 01:02:43;;;;;;;8.85;4.65;;;-1.80;99.90;;;;;;4991038;28;20034;-49
2022/01/07 01:05:11;;;;;;;5.70;4.85;;;-1.80;99.90;;;;;;4983678;28;20034;-48
2022/01/07 01:07:37;;;;;;;3.03;2.78;;;-1.80;99.90;;;;;;4982617;28;20075;-48
2022/01/07 01:10:07;;;;;;;5.07;4.10;;;-1.80;99.90;;;;;;4982926;28;20030;-49
2022/01/07 01:12:37;;;;;;;5.72;3.83;;;-1.70;99.90;;;;;;4997876;28;20081;-49
2022/01/07 01:15:06;;;;;;;6.53;3.83;;;-1.70;99.90;;;;;;4984924;28;20092;-48
2022/01/07 01:17:31;;;;;;;20.25;4.82;;;-1.80;99.90;;;;;;4983756;28;20034;-49
2022/01/07 01:19:57;;;;;;;8.80;4.47;;;-1.90;99.90;;;;;;4990020;28;20625;-48
2022/01/07 01:22:23;;;;;;;8.68;4.53;;;-1.90;99.90;;;;;;4985977;28;20129;-48
2022/01/07 01:24:49;;;;;;;7.85;4.45;;;-1.90;99.90;;;;;;4991991;28;20494;-49
2022/01/07 01:27:14;;;;;;;7.40;5.25;;;-1.90;99.90;;;;;;4992809;28;20049;-48
2022/01/07 01:29:40;;;;;;;7.00;4.00;;;-1.80;99.90;;;;;;4990662;28;20065;-49
2022/01/07 01:32:06;;;;;;;8.82;4.28;;;-1.80;99.90;;;;;;4990120;28;20050;-49
2022/01/07 01:34:31;;;;;;;6.88;4.00;;;-1.80;99.90;;;;;;4989680;28;20157;-49
2022/01/07 01:36:57;;;;;;;8.05;4.03;;;-2.00;99.90;;;;;;5005115;28;20030;-48
2022/01/07 01:39:23;;;;;;;6.47;4.13;;;-2.00;99.90;;;;;;4980926;28;20387;-49
2022/01/07 01:41:49;;;;;;;6.88;4.18;;;-2.10;99.90;;;;;;4990108;28;20478;-49
2022/01/07 01:44:15;;;;;;;5.72;3.35;;;-2.10;99.90;;;;;;4988071;28;21297;-49
2022/01/07 01:46:41;;;;;;;2.92;2.70;;;-2.10;99.90;;;;;;4986396;28;20025;-48
2022/01/07 01:49:07;;;;;;;3.55;3.15;;;-2.10;99.90;;;;;;4991458;28;20387;-49
2022/01/07 01:51:34;;;;;;;4.63;3.75;;;-2.30;99.90;;;;;;4991713;28;20031;-49
2022/01/07 01:54:00;;;;;;;17.85;4.40;;;-2.30;99.90;;;;;;4996906;28;20065;-49
2022/01/07 01:56:25;;;;;;;7.63;4.95;;;-2.40;99.90;;;;;;4981787;28;20037;-49
2022/01/07 01:58:51;;;;;;;8.50;4.57;;;-2.40;99.90;;;;;;4984288;28;20087;-49
2022/01/07 02:01:17;;;;;;;10.55;4.15;;;-2.50;99.90;;;;;;4989430;28;20120;-50
2022/01/07 02:03:43;;;;;;;6.47;4.20;;;-2.50;99.90;;;;;;4995532;28;20367;-50
2022/01/07 02:06:09;;;;;;;18.73;4.50;;;-2.50;99.90;;;;;;4997645;28;20038;-49
2022/01/07 02:08:36;;;;;;;8.68;4.68;;;-2.60;99.90;;;;;;4995814;28;20030;-49
2022/01/07 02:11:03;;;;;;;3.20;2.97;;;-2.60;99.90;;;;;;4991966;28;20290;-51
2022/01/07 02:13:28;;;;;;;4.15;3.50;;;-2.60;99.90;;;;;;4991156;28;20590;-50
2022/01/07 02:15:54;;;;;;;6.28;4.45;;;-2.60;99.90;;;;;;4993208;28;20110;-50
2022/01/07 02:18:20;;;;;;;4.50;3.30;;;-2.60;99.90;;;;;;4994714;28;20084;-49
2022/01/07 02:20:47;;;;;;;6.05;4.13;;;-2.50;99.90;;;;;;4996116;28;20034;-50
2022/01/07 02:23:13;;;;;;;4.60;3.85;;;-2.50;99.90;;;;;;4994693;28;20061;-50
2022/01/07 02:25:39;;;;;;;5.30;4.20;;;-2.60;99.90;;;;;;4992228;28;20033;-49
2022/01/07 02:28:05;;;;;;;11.85;4.13;;;-2.50;99.90;;;;;;4992879;28;20021;-49
2022/01/07 02:30:32;;;;;;;6.18;4.20;;;-2.50;99.90;;;;;;4992955;28;20144;-49
2022/01/07 02:32:58;;;;;;;6.10;4.03;;;-2.50;99.90;;;;;;4996926;28;20746;-49
2022/01/07 02:35:27;;;;;;;5.35;4.07;;;-2.50;99.90;;;;;;5008419;28;20034;-50
2022/01/07 02:37:53;;;;;;;6.22;4.05;;;-2.40;99.90;;;;;;4994253;28;21053;-50
2022/01/07 02:40:18;;;;;;;4.95;3.20;;;-2.40;99.90;;;;;;4994928;28;20189;-49
2022/01/07 02:42:44;;;;;;;6.32;4.10;;;-2.30;99.90;;;;;;4997106;28;20113;-50
2022/01/07 02:45:11;;;;;;;6.07;3.65;;;-2.40;99.90;;;;;;4997595;28;20360;-49
2022/01/07 02:50:11;;;;;;;3.92;2.58;;;-2.40;99.90;;;;;;5002000;28;20042;-49
2022/01/07 02:52:37;;;;;;;6.72;3.67;;;-2.40;99.90;;;;;;4992292;28;20084;-49
2022/01/07 02:55:03;;;;;;;9.15;3.10;;;-2.50;99.90;;;;;;4995666;28;20364;-49
2022/01/07 02:57:28;;;;;;;3.42;3.08;;;-2.60;99.90;;;;;;4991060;28;20038;-49
2022/01/07 02:59:54;;;;;;;4.25;3.85;;;-2.60;99.90;;;;;;4993098;28;20048;-49
2022/01/07 03:02:20;;;;;;;7.35;4.95;;;-2.60;99.90;;;;;;4997403;28;20037;-49
2022/01/07 03:04:45;;;;;;;5.60;3.63;;;-2.70;99.90;;;;;;5005337;28;20026;-49
2022/01/07 03:07:11;;;;;;;9.25;4.82;;;-2.70;99.90;;;;;;4990633;28;20044;-49
2022/01/07 03:09:36;;;;;;;4.20;3.15;;;-2.70;99.90;;;;;;4988946;28;20442;-49
2022/01/07 03:12:02;;;;;;;5.05;3.85;;;-2.70;99.90;;;;;;4996194;28;20030;-49
2022/01/07 03:14:28;;;;;;;5.47;3.33;;;-2.70;99.90;;;;;;5015273;28;20402;-49
2022/01/07 03:16:53;;;;;;;5.35;4.13;;;-2.70;99.90;;;;;;4999665;28;20467;-50
2022/01/07 03:19:19;;;;;;;6.03;3.67;;;-2.70;99.90;;;;;;5000939;28;20038;-49
2022/01/07 03:21:44;;;;;;;6.10;3.47;;;-2.60;99.90;;;;;;4996709;28;20044;-50
2022/01/07 03:24:12;;;;;;;4.35;3.97;;;-2.60;99.90;;;;;;4993396;28;20545;-49
2022/01/07 03:26:38;;;;;;;5.97;3.83;;;-2.70;99.90;;;;;;4997972;28;20776;-49
2022/01/07 03:29:04;;;;;;;6.47;4.47;;;-2.70;99.90;;;;;;4989505;28;20030;-50
2022/01/07 03:31:30;;;;;;;4.40;3.33;;;-2.70;99.90;;;;;;5000534;28;20514;-49
2022/01/07 03:33:56;;;;;;;9.48;3.80;;;-2.70;99.90;;;;;;4991344;28;20038;-49
2022/01/07 03:36:21;;;;;;;4.22;3.83;;;-2.70;99.90;;;;;;4992772;28;20050;-50
2022/01/07 03:38:47;;;;;;;5.60;3.75;;;-2.80;99.90;;;;;;4990103;28;20033;-49
2022/01/07 03:41:13;;;;;;;5.40;3.88;;;-2.80;99.90;;;;;;4993269;28;20033;-49
2022/01/07 03:43:38;;;;;;;6.45;4.53;;;-2.90;99.90;;;;;;4993385;28;20065;-49
2022/01/07 03:46:04;;;;;;;3.70;3.33;;;-2.90;99.90;;;;;;4989283;28;20491;-50
2022/01/07 03:48:30;;;;;;;7.93;4.07;;;-2.90;99.90;;;;;;4987291;28;20069;-49
2022/01/07 03:50:56;;;;;;;7.97;4.80;;;-2.90;99.90;;;;;;4996896;28;20061;-49
2022/01/07 03:53:25;;;;;;;7.32;5.68;;;-2.90;99.90;;;;;;5017390;28;20026;-49
2022/01/07 03:55:52;;;;;;;13.88;8.15;;;-2.80;99.90;;;;;;4990126;28;20038;-49
2022/01/07 03:58:18;;;;;;;3.90;3.35;;;-2.80;99.90;;;;;;4989124;28;20049;-49
2022/01/07 04:00:44;;;;;;;5.88;3.80;;;-2.90;99.90;;;;;;4991678;28;20046;-49
2022/01/07 04:03:13;;;;;;;4.55;3.42;;;-2.80;99.90;;;;;;4991462;28;20046;-49
2022/01/07 04:05:39;;;;;;;10.40;4.63;;;-2.80;99.90;;;;;;4992142;28;20049;-50
2022/01/07 04:08:06;;;;;;;7.22;4.57;;;-2.90;99.90;;;;;;4994976;28;20033;-49
2022/01/07 04:10:31;;;;;;;5.25;3.47;;;-2.80;99.90;;;;;;4986562;28;20815;-49
2022/01/07 04:12:57;;;;;;;5.35;3.75;;;-2.70;99.90;;;;;;5003720;28;20117;-49
2022/01/07 04:15:23;;;;;;;6.35;3.88;;;-2.80;99.90;;;;;;5024384;28;20129;-49
2022/01/07 04:17:50;;;;;;;4.65;3.53;;;-2.80;99.90;;;;;;5002053;28;20030;-49
2022/01/07 04:20:18;;;;;;;4.38;3.63;;;-2.70;99.90;;;;;;4998937;28;20038;-49
2022/01/07 04:22:45;;;;;;;3.67;2.95;;;-2.70;99.90;;;;;;4991099;28;21450;-49
2022/01/07 04:25:17;;;;;;;4.10;3.75;;;-2.80;99.90;;;;;;4993939;28;20034;-49
2022/01/07 04:27:44;;;;;;;4.50;4.10;;;-2.80;99.90;;;;;;5001309;28;20064;-49
2022/01/07 04:30:11;;;;;;;3.92;3.63;;;-2.80;99.90;;;;;;4991641;28;20415;-49
2022/01/07 04:32:37;;;;;;;5.97;4.30;;;-2.90;99.90;;;;;;4999975;28;20041;-50
2022/01/07 04:35:04;;;;;;;4.30;3.17;;;-2.90;99.90;;;;;;4986189;28;20129;-49
2022/01/07 04:37:30;;;;;;;7.07;3.35;;;-3.00;99.90;;;;;;4990646;28;20030;-49
2022/01/07 04:39:55;;;;;;;9.73;4.07;;;-3.00;99.90;;;;;;4988335;28;20061;-49
2022/01/07 04:42:21;;;;;;;9.38;4.47;;;-3.00;99.90;;;;;;4989800;28;20062;-49
2022/01/07 04:44:47;;;;;;;4.88;4.35;;;-3.00;99.90;;;;;;5006454;28;20030;-49
2022/01/07 04:47:12;;;;;;;4.07;3.72;;;-3.00;99.90;;;;;;4991490;28;20124;-49
2022/01/07 04:49:38;;;;;;;3.97;3.63;;;-3.00;99.90;;;;;;4992124;28;20037;-49
2022/01/07 04:52:04;;;;;;;10.50;6.95;;;-3.10;99.90;;;;;;5003235;28;20018;-50
2022/01/07 04:54:30;;;;;;;10.43;4.97;;;-3.00;99.90;;;;;;5026659;28;20473;-50
2022/01/07 04:56:57;;;;;;;3.58;3.17;;;-3.00;99.90;;;;;;4997372;28;20034;-49
2022/01/07 04:59:22;;;;;;;6.00;3.10;;;-3.00;99.90;;;;;;4993267;28;20034;-49
2022/01/07 05:01:48;;;;;;;5.78;3.53;;;-3.10;99.90;;;;;;4984794;28;20069;-49
2022/01/07 05:04:14;;;;;;;4.97;3.88;;;-3.10;99.90;;;;;;5002473;28;20041;-50
2022/01/07 05:09:06;;;;;;;5.10;4.05;;;-3.10;99.90;;;;;;4995771;28;20105;-49
2022/01/07 05:11:32;;;;;;;5.18;3.70;;;-3.10;99.90;;;;;;4997847;28;20093;-50
2022/01/07 05:13:58;;;;;;;4.88;4.07;;;-3.10;99.90;;;;;;4995465;28;20030;-49
2022/01/07 05:16:26;;;;;;;6.28;3.60;;;-3.20;99.90;;;;;;5003581;28;20073;-49
2022/01/07 05:18:52;;;;;;;4.95;4.45;;;-3.20;99.90;;;;;;5014549;28;20530;-49
2022/01/07 05:21:18;;;;;;;3.55;3.22;;;-3.10;99.90;;;;;;5002090;28;20078;-49
2022/01/07 05:23:44;;;;;;;5.15;4.03;;;-3.10;99.90;;;;;;5009149;28;20052;-49
2022/01/07 05:26:10;;;;;;;5.97;4.47;;;-3.10;99.90;;;;;;5024058;28;20026;-49
2022/01/07 05:28:36;;;;;;;6.90;4.65;;;-3.10;99.90;;;;;;5008721;28;20160;-49
2022/01/07 05:31:03;;;;;;;6.82;4.63;;;-3.20;99.90;;;;;;5006798;28;20517;-49
2022/01/07 05:33:29;;;;;;;5.32;4.15;;;-3.20;99.90;;;;;;5006229;28;20034;-49
2022/01/07 05:35:55;;;;;;;3.95;3.58;;;-3.30;99.90;;;;;;4979364;28;20030;-49
2022/01/07 05:38:21;;;;;;;6.20;4.18;;;-3.30;99.90;;;;;;4992000;28;20041;-50
2022/01/07 05:40:46;;;;;;;4.30;3.47;;;-3.30;99.90;;;;;;5003769;28;21131;-50
2022/01/07 05:43:12;;;;;;;4.97;3.42;;;-3.30;99.90;;;;;;4989971;28;20379;-49
2022/01/07 05:45:38;;;;;;;5.05;3.58;;;-3.30;99.90;;;;;;4991049;28;20077;-49
2022/01/07 05:48:04;;;;;;;5.55;4.03;;;-3.30;99.90;;;;;;4995879;28;20061;-49
2022/01/07 05:50:30;;;;;;;4.97;4.47;;;-3.30;99.90;;;;;;5001104;28;20030;-49
2022/01/07 05:52:55;;;;;;;12.30;6.45;;;-3.30;99.90;;;;;;4996460;28;20128;-50
2022/01/07 05:55:21;;;;;;;4.35;3.60;;;-3.30;99.90;;;;;;4994572;28;20104;-49
2022/01/07 05:57:47;;;;;;;6.10;4.22;;;-3.30;99.90;;;;;;4994882;28;20077;-49
2022/01/07 06:00:13;;;;;;;5.03;3.40;;;-3.30;99.90;;;;;;4988736;28;20033;-49
2022/01/07 06:02:39;;;;;;;3.50;2.90;;;-3.30;99.90;;;;;;4994974;28;20054;-50
2022/01/07 06:05:06;;;;;;;6.13;3.65;;;-3.30;99.90;;;;;;4990132;28;20061;-49
2022/01/07 06:07:32;;;;;;;4.03;3.25;;;-3.30;99.90;;;;;;5003318;28;20026;-49
2022/01/07 06:09:58;;;;;;;4.38;3.72;;;-3.30;99.90;;;;;;5017687;28;20030;-49
2022/01/07 06:12:24;;;;;;;6.05;3.80;;;-3.30;99.90;;;;;;5002499;28;20459;-49
2022/01/07 06:14:50;;;;;;;10.35;6.95;;;-3.30;99.90;;;;;;5012381;28;20030;-49
2022/01/07 06:17:15;;;;;;;11.35;6.13;;;-3.30;99.90;;;;;;5013422;28;20034;-49
2022/01/07 06:19:41;;;;;;;6.13;5.35;;;-3.30;99.90;;;;;;4987036;28;20076;-49
2022/01/07 06:22:07;;;;;;;6.53;4.40;;;-3.30;99.90;;;;;;4995234;28;20030;-49
2022/01/07 06:24:32;;;;;;;6.50;4.30;;;-3.30;99.90;;;;;;4992374;28;20121;-49
2022/01/07 06:26:58;;;;;;;5.50;4.38;;;-3.30;99.90;;;;;;5007895;28;20053;-49
2022/01/07 06:29:25;;;;;;;4.78;3.80;;;-3.30;99.90;;;;;;5022054;28;20026;-50
2022/01/07 06:31:51;;;;;;;7.32;5.75;;;-3.30;99.90;;;;;;5005928;28;20041;-50
2022/01/07 06:34:20;;;;;;;5.80;4.72;;;-3.20;99.90;;;;;;5016682;28;20049;-50
2022/01/07 06:36:47;;;;;;;7.78;4.75;;;-3.30;99.90;;;;;;5006144;28;20045;-49
2022/01/07 06:39:14;;;;;;;4.00;3.65;;;-3.30;99.90;;;;;;5004722;28;20113;-49
2022/01/07 06:41:40;;;;;;;6.50;4.15;;;-3.30;99.90;;;;;;4994464;28;20041;-49
2022/01/07 06:44:06;;;;;;;4.75;4.28;;;-3.30;99.90;;;;;;4997466;28;20034;-49
2022/01/07 06:46:32;;;;;;;7.18;4.85;;;-3.30;99.90;;;;;;5012598;28;20037;-49
2022/01/07 06:48:58;;;;;;;5.05;4.50;;;-3.30;99.90;;;;;;5012709;28;21353;-49
2022/01/07 06:51:24;;;;;;;5.85;3.40;;;-3.30;99.90;;;;;;5009699;28;20027;-49
2022/01/07 06:53:50;;;;;;;6.00;3.67;;;-3.30;99.90;;;;;;4996900;28;20122;-49
2022/01/07 06:56:16;;;;;;;4.38;3.95;;;-3.20;99.90;;;;;;5017300;28;20030;-49
2022/01/07 06:58:42;;;;;;;5.72;3.47;;;-3.20;99.90;;;;;;5016434;28;20034;-50
2022/01/07 07:01:09;;;;;;;4.25;3.95;;;-3.20;99.90;;;;;;5018218;28;20143;-50
2022/01/07 07:03:40;;;;;;;4.65;4.05;;;-3.20;99.90;;;;;;5021236;28;20026;-49
2022/01/07 07:06:06;;;;;;;4.68;3.10;;;-3.10;99.90;;;;;;5013636;28;20033;-49
2022/01/07 07:08:32;;;;;;;5.00;3.63;;;-3.10;99.90;;;;;;4987143;28;20036;-49
2022/01/07 07:10:58;;;;;;;9.15;5.30;;;-3.10;99.90;;;;;;5008495;28;20031;-50
2022/01/07 07:13:23;;;;;;;8.23;4.63;;;-3.00;99.90;;;;;;5005055;28;20018;-49
2022/01/07 07:15:49;;;;;;;12.60;5.07;;;-2.90;99.90;;;;;;4997776;28;20095;-50
2022/01/07 07:18:17;;;;;;;8.27;4.53;;;-2.90;99.90;;;;;;5005963;28;20049;-50
2022/01/07 07:20:43;;;;;;;5.63;3.70;;;-2.90;99.90;;;;;;4991331;28;20614;-49
2022/01/07 07:23:09;;;;;;;7.78;4.35;;;-2.80;99.90;;;;;;4994709;28;20308;-49
2022/01/07 07:25:35;;;;;;;5.07;4.63;;;-2.80;99.90;;;;;;4986841;28;20036;-50
2022/01/07 07:28:01;;;;;;;7.32;3.75;;;-2.70;99.90;;;;;;4984786;28;20034;-49
2022/01/07 07:30:34;;;;;;;12.95;4.65;;;-2.70;99.90;;;;;;4994342;28;20372;-49
2022/01/07 07:33:18;;;;;;;8.48;5.07;;;-2.70;99.90;;;;;;4999076;28;20034;-49
2022/01/07 07:38:13;;;;;;;8.50;4.65;;;-2.50;99.90;;;;;;4994119;28;20042;-50
2022/01/07 07:40:39;;;;;;;8.00;5.32;;;-2.50;99.90;;;;;;4988591;28;20034;-49
2022/01/07 07:43:08;;;;;;;10.80;5.57;;;-2.50;99.90;;;;;;5006902;28;20034;-49
2022/01/07 07:45:34;;;;;;;6.75;4.63;;;-2.40;99.90;;;;;;5015473;28;20395;-50
2022/01/07 07:48:00;;;;;;;11.38;5.57;;;-2.40;99.90;;;;;;5003560;28;20033;-49
2022/01/07 07:50:26;;;;;;;6.75;5.20;;;-2.40;99.90;;;;;;4991393;28;20038;-49
2022/01/07 07:52:52;;;;;;;9.88;6.28;;;-2.30;99.90;;;;;;4988284;28;20027;-49
2022/01/07 07:55:17;;;;;;;9.43;5.07;;;-2.30;99.90;;;;;;5001732;28;20065;-49
2022/01/07 07:57:43;;;;;;;9.50;6.22;;;-2.20;99.90;;;;;;4999140;28;20041;-50
2022/01/07 08:00:10;;;;;;;7.68;4.93;;;-2.20;99.90;;;;;;4996625;28;20037;-49
2022/01/07 08:02:38;;;;;;;9.15;5.93;;;-2.20;99.90;;;;;;4985099;28;20042;-50
2022/01/07 08:05:04;;;;;;;7.90;5.32;;;-2.10;99.90;;;;;;4987368;28;20049;-50
2022/01/07 08:07:30;;;;;;;11.68;5.50;;;-2.10;99.90;;;;;;5000938;28;20033;-50
2022/01/07 08:09:56;;;;;;;7.20;4.38;;;-2.10;99.90;;;;;;5003223;28;20127;-50
2022/01/07 08:12:39;;;;;;;13.32;5.00;;;-2.00;99.90;;;;;;4973762;28;20033;-50
2022/01/07 08:17:49;;;;;;;8.05;5.05;;;-2.00;99.90;;;;;;4985857;28;20033;-49
2022/01/07 08:20:15;;;;;;;6.47;4.85;;;-1.90;99.90;;;;;;4999084;28;20022;-50
2022/01/07 08:22:41;;;;;;;12.35;5.57;;;-1.90;99.90;;;;;;5002236;28;20119;-49
2022/01/07 08:25:08;;;;;;;11.05;5.00;;;-1.90;99.90;;;;;;4987374;28;20470;-50
2022/01/07 08:27:33;;;;;;;11.85;6.05;;;-1.80;99.90;;;;;;5006785;28;20033;-50
2022/01/07 08:30:05;;;;;;;7.15;4.35;;;-1.80;99.90;;;;;;4988736;28;20080;-50
2022/01/07 08:35:15;;;;;;;7.82;5.32;;;-1.70;99.90;;;;;;4999501;28;20037;-49
2022/01/07 08:37:41;;;;;;;11.90;6.30;;;-1.70;99.90;;;;;;4993293;28;20398;-49
2022/01/07 08:40:07;;;;;;;8.20;5.38;;;-1.60;99.90;;;;;;4991570;28;20045;-51
2022/01/07 08:42:33;;;;;;;7.32;4.88;;;-1.60;99.90;;;;;;4991852;28;20030;-50
2022/01/07 08:44:59;;;;;;;10.95;6.07;;;-1.60;99.90;;;;;;4997364;28;20932;-49
2022/01/07 08:47:25;;;;;;;7.10;5.95;;;-1.50;99.90;;;;;;5018576;28;20048;-49
2022/01/07 08:49:52;;;;;;;6.05;4.78;;;-1.50;99.90;;;;;;4992942;28;20025;-51
2022/01/07 08:52:19;;;;;;;14.02;7.68;;;-1.50;99.90;;;;;;5000968;28;20617;-50
2022/01/07 08:54:45;;;;;;;11.15;6.13;;;-1.40;99.90;;;;;;4994246;28;20038;-50
2022/01/07 08:57:11;;;;;;;15.68;6.28;;;-1.40;99.90;;;;;;5000776;28;20037;-50
2022/01/07 08:59:37;;;;;;;23.15;9.75;;;-1.40;99.90;;;;;;5004593;28;20031;-50
2022/01/07 09:02:03;;;;;;;9.98;6.13;;;-1.40;99.90;;;;;;4988577;28;20041;-50
2022/01/07 09:04:29;;;;;;;10.73;5.68;;;-1.40;99.90;;;;;;5006150;28;20038;-50
2022/01/07 09:06:55;;;;;;;8.55;5.78;;;-1.30;99.90;;;;;;5008948;28;20026;-49
2022/01/07 09:09:21;;;;;;;13.75;6.65;;;-1.30;99.90;;;;;;4992586;28;21619;-49
2022/01/07 09:11:49;;;;;;;9.55;5.05;;;-1.30;99.90;;;;;;5012733;28;20084;-49
2022/01/07 09:14:16;;;;;;;13.23;5.80;;;-1.20;99.90;;;;;;5011831;28;20045;-50
2022/01/07 09:16:42;;;;;;;12.23;6.68;;;-1.20;99.90;;;;;;5005335;28;20033;-49
2022/01/07 09:19:08;;;;;;;27.02;13.65;;;-1.20;99.90;;;;;;5004831;28;22439;-50
2022/01/07 09:21:33;;;;;;;12.48;7.45;;;-1.10;99.90;;;;;;5017128;28;20037;-49
2022/01/07 09:23:59;;;;;;;12.90;8.18;;;-1.10;99.90;;;;;;5006509;28;20054;-50
2022/01/07 09:26:25;;;;;;;10.07;5.53;;;-1.10;99.90;;;;;;4993296;28;20030;-49
2022/01/07 09:28:51;;;;;;;12.60;7.82;;;-1.10;99.90;;;;;;5004261;28;20049;-49
2022/01/07 09:31:17;;;;;;;12.38;8.32;;;-1.10;99.90;;;;;;4989135;28;20741;-49
2022/01/07 09:33:43;;;;;;;14.45;8.95;;;-1.10;99.90;;;;;;4986219;28;20029;-49
2022/01/07 09:36:09;;;;;;;7.38;4.75;;;-1.00;99.90;;;;;;5001791;28;20034;-49
2022/01/07 09:38:35;;;;;;;7.55;5.68;;;-1.00;99.90;;;;;;5002368;28;20037;-50
2022/01/07 09:41:01;;;;;;;8.57;5.82;;;-1.00;99.90;;;;;;5001161;28;20034;-50
2022/01/07 09:43:27;;;;;;;9.73;6.55;;;-0.90;99.90;;;;;;4991759;28;20498;-49
2022/01/07 09:45:53;;;;;;;10.00;6.10;;;-0.90;99.90;;;;;;4990896;28;20102;-49
2022/01/07 09:48:19;;;;;;;14.25;8.77;;;-0.90;99.90;;;;;;4991150;28;20053;-49
2022/01/07 09:50:45;;;;;;;10.68;6.60;;;-0.90;99.90;;;;;;4990243;28;20117;-49
2022/01/07 09:53:13;;;;;;;12.50;7.35;;;-0.90;99.90;;;;;;4991753;28;20060;-49
2022/01/07 09:55:39;;;;;;;24.83;12.55;;;-0.80;99.90;;;;;;4998556;28;20593;-49
2022/01/07 09:58:07;;;;;;;12.20;7.30;;;-0.80;99.90;;;;;;4996140;28;20036;-50
2022/01/07 10:00:40;;;;;;;12.55;6.00;;;-0.80;99.90;;;;;;4993939;28;20045;-50
2022/01/07 10:03:17;;;;;;;12.13;7.13;;;-0.80;99.90;;;;;;4999510;28;20036;-50
2022/01/07 10:05:50;;;;;;;10.10;6.63;;;-0.70;99.90;;;;;;4997003;28;20037;-50
2022/01/07 10:08:23;;;;;;;7.18;5.65;;;-0.70;99.90;;;;;;5011377;28;20099;-50
2022/01/07 10:11:21;;;;;;;10.40;6.30;;;-0.70;99.90;;;;;;5011042;28;20025;-50
2022/01/07 10:14:11;;;;;;;15.30;7.00;;;-0.70;99.90;;;;;;4971612;28;20813;-50
2022/01/07 10:16:47;;;;;;;9.65;6.72;;;-0.60;99.90;;;;;;5009005;28;20100;-50
2022/01/07 10:19:28;;;;;;;9.93;6.53;;;-0.60;99.90;;;;;;5008303;28;20034;-51
2022/01/07 10:21:58;;;;;;;7.57;5.75;;;-0.60;99.90;;;;;;5006577;28;20048;-50
2022/01/07 10:24:24;;;;;;;8.07;5.18;;;-0.60;99.90;;;;;;5023419;28;20030;-49
2022/01/07 10:27:13;;;;;;;8.18;5.63;;;-0.60;99.90;;;;;;5007898;28;20068;-50
2022/01/07 10:29:42;;;;;;;10.20;6.45;;;-0.50;99.90;;;;;;4997769;28;20049;-50
2022/01/07 10:32:18;;;;;;;;;;;-0.50;99.90;;;;;;5003351;28;20124;-50
2022/01/07 10:35:09;;;;;;;6.82;5.25;;;-0.50;99.90;;;;;;5012690;28;19910;-49
2022/01/07 10:37:45;;;;;;;8.02;5.40;;;-0.50;99.90;;;;;;5011875;28;21629;-49
2022/01/07 10:40:28;;;;;;;17.13;6.38;;;-0.40;99.90;;;;;;5009739;28;20040;-53
2022/01/07 10:43:06;;;;;;;13.45;6.43;;;-0.40;99.90;;;;;;4995305;28;20487;-53
2022/01/07 10:45:32;;;;;;;10.95;6.10;;;-0.40;99.90;;;;;;4998317;28;20391;-51
2022/01/07 10:47:58;;;;;;;10.30;5.32;;;-0.40;99.90;;;;;;5006071;28;20034;-53
2022/01/07 10:50:24;;;;;;;10.10;4.97;;;-0.40;99.90;;;;;;5002067;28;20124;-53
2022/01/07 10:52:51;;;;;;;6.70;4.78;;;-0.30;99.90;;;;;;4996921;28;20033;-50
2022/01/07 10:55:21;;;;;;;7.18;4.35;;;-0.40;99.90;;;;;;5008141;28;22182;-51
2022/01/07 10:57:49;;;;;;;8.60;4.95;;;-0.30;99.90;;;;;;5013272;28;20030;-50
2022/01/07 11:00:19;;;;;;;5.97;4.38;;;-0.30;99.90;;;;;;5013664;28;20029;-50
2022/01/07 11:02:46;;;;;;;9.02;6.32;;;-0.30;99.90;;;;;;5008130;28;20040;-50
2022/01/07 11:05:13;;;;;;;8.65;5.57;;;-0.30;99.90;;;;;;5007624;28;20375;-50
2022/01/07 11:07:39;;;;;;;7.97;4.65;;;-0.30;99.90;;;;;;5016156;28;20039;-50
2022/01/07 11:10:06;;;;;;;6.78;5.68;;;-0.30;99.90;;;;;;5002045;28;20059;-50
2022/01/07 11:12:33;;;;;;;7.40;6.28;;;-0.20;99.90;;;;;;5007236;28;20283;-50
2022/01/07 11:14:59;;;;;;;8.63;5.55;;;-0.30;99.90;;;;;;5011441;28;20021;-49
2022/01/07 11:17:26;;;;;;;6.18;4.55;;;-0.20;99.90;;;;;;5009842;28;20248;-49
2022/01/07 11:19:55;;;;;;;9.13;6.05;;;-0.20;99.90;;;;;;5008331;28;20061;-49
2022/01/07 11:22:22;;;;;;;8.68;5.18;;;-0.20;99.90;;;;;;5005933;28;20109;-49
2022/01/07 11:24:53;;;;;;;7.15;5.00;;;-0.20;99.90;;;;;;5006240;28;20045;-50
2022/01/07 11:27:22;;;;;;;6.90;5.38;;;-0.20;99.90;;;;;;5011436;28;20032;-49
2022/01/07 11:29:47;;;;;;;;;;;-0.10;99.90;;;;;;5009609;28;20109;-49
2022/01/07 11:32:25;;;;;;;10.75;4.45;;;-0.10;99.90;;;;;;5019459;28;19984;-49
2022/01/07 11:34:51;;;;;;;5.03;4.47;;;-0.10;99.90;;;;;;5026316;28;20039;-50
2022/01/07 11:37:37;;;;;;;8.13;4.55;;;-0.10;99.90;;;;;;5029052;28;20680;-51
2022/01/07 11:40:05;;;;;;;8.25;5.03;;;-0.10;99.90;;;;;;5024952;28;20056;-49
2022/01/07 11:42:47;;;;;;;15.30;5.20;;;-0.10;99.90;;;;;;5018169;28;20975;-53
2022/01/07 11:45:34;;;;;;;7.72;4.55;;;0.00;99.90;;;;;;5015775;28;20795;-53
2022/01/07 11:48:09;;;;;;;8.52;4.85;;;0.00;99.90;;;;;;5018843;28;20029;-52
2022/01/07 11:50:56;;;;;;;6.00;5.10;;;0.00;99.90;;;;;;5019789;28;20029;-52
2022/01/07 11:53:28;;;;;;;6.03;4.22;;;0.00;99.90;;;;;;5015749;28;20485;-53
2022/01/07 11:56:01;;;;;;;8.40;5.55;;;0.10;99.90;;;;;;5024033;28;20755;-53
2022/01/07 11:58:54;;;;;;;5.07;4.10;;;0.10;99.90;;;;;;5024299;28;20026;-52
2022/01/07 12:01:36;;;;;;;7.05;5.40;;;0.10;99.90;;;;;;5018980;28;20087;-53
2022/01/07 12:04:27;;;;;;;4.15;3.47;;;0.10;99.90;;;;;;5021255;28;20079;-52
2022/01/07 12:06:53;;;;;;;8.45;4.68;;;0.20;99.90;;;;;;5015286;28;20035;-52
2022/01/07 12:09:20;;;;;;;7.00;4.30;;;0.20;99.90;;;;;;5017907;28;20025;-54
2022/01/07 12:12:05;;;;;;;6.75;4.30;;;0.20;99.90;;;;;;5019937;28;20033;-52
2022/01/07 12:14:51;;;;;;;10.50;5.47;;;0.20;99.90;;;;;;5021883;28;20028;-49
2022/01/07 12:17:18;;;;;;;8.40;4.60;;;0.20;99.90;;;;;;5022651;28;20091;-50
2022/01/07 12:19:51;;;;;;;17.58;10.00;;;0.20;99.90;;;;;;5027244;28;20029;-49
2022/01/07 12:22:17;;;;;;;9.05;6.78;;;0.20;99.90;;;;;;5025322;28;20047;-49
2022/01/07 12:24:44;;;;;;;5.47;4.78;;;0.20;99.90;;;;;;5025493;28;20056;-49
2022/01/07 12:27:11;;;;;;;11.55;6.20;;;0.30;99.90;;;;;;5028025;28;20034;-49
2022/01/07 12:29:42;;;;;;;8.57;5.30;;;0.30;99.90;;;;;;5017616;28;20067;-51
2022/01/07 12:32:11;;;;;;;10.93;4.72;;;0.30;99.90;;;;;;5018254;28;20511;-50
2022/01/07 12:34:45;;;;;;;8.82;5.10;;;0.40;99.90;;;;;;5022634;28;20037;-50
2022/01/07 12:37:18;;;;;;;6.03;4.93;;;0.40;99.90;;;;;;5027630;28;22410;-51
2022/01/07 12:39:55;;;;;;;10.75;5.60;;;0.40;99.90;;;;;;5023581;28;20129;-50
2022/01/07 12:42:20;;;;;;;6.72;4.32;;;0.40;99.90;;;;;;5013442;28;20056;-50
2022/01/07 12:44:52;;;;;;;7.55;4.55;;;0.50;99.90;;;;;;5015084;28;20991;-50
2022/01/07 12:47:23;;;;;;;6.32;4.78;;;0.50;99.90;;;;;;5016985;28;20692;-50
2022/01/07 12:50:04;;;;;;;8.52;4.78;;;0.50;99.90;;;;;;5014455;28;20021;-50
2022/01/07 12:52:37;;;;;;;8.13;4.15;;;0.50;99.90;;;;;;5012927;28;20060;-50
2022/01/07 12:55:07;;;;;;;5.43;4.13;;;0.50;99.90;;;;;;5011748;28;20167;-50
2022/01/07 12:57:40;;;;;;;7.93;4.50;;;0.50;99.90;;;;;;5016461;28;20147;-50
2022/01/07 13:00:12;;;;;;;7.40;5.30;;;0.50;99.90;;;;;;5015320;28;20029;-50
2022/01/07 13:02:45;;;;;;;8.55;5.10;;;0.50;99.90;;;;;;5015121;28;20447;-51